sensor_id;sensor_type;location;lat;lon;timestamp;P1;durP1;ratioP1;P2;durP2;ratioP2
70545;SDS011;58098;51.680;5.134;2023-05-07T00:00:01;17.20;;;13.35;;
70545;SDS011;58098;51.680;5.134;2023-05-07T00:02:27;17.40;;;13.27;;
70545;SDS011;58098;51.680;5.134;2023-05-07T00:04:53;17.13;;;13.50;;
70545;SDS011;58098;51.680;5.134;2023-05-07T00:07:18;16.33;;;14.00;;
70545;SDS011;58098;51.680;5.134;2023-05-07T00:09:43;16.17;;;13.30;;
70545;SDS011;58098;51.680;5.134;2023-05-07T00:12:09;15.80;;;13.43;;
70545;SDS011;58098;51.680;5.134;2023-05-07T00:14:35;14.95;;;13.48;;
70545;SDS011;58098;51.680;5.134;2023-05-07T00:17:00;16.80;;;13.20;;
70545;SDS011;58098;51.680;5.134;2023-05-07T00:19:26;16.85;;;13.77;;
70545;SDS011;58098;51.680;5.134;2023-05-07T00:21:51;16.53;;;12.60;;
70545;SDS011;58098;51.680;5.134;2023-05-07T00:24:18;17.80;;;14.38;;
70545;SDS011;58098;51.680;5.134;2023-05-07T00:26:43;20.43;;;14.23;;
70545;SDS011;58098;51.680;5.134;2023-05-07T00:29:09;16.43;;;13.57;;
70545;SDS011;58098;51.680;5.134;2023-05-07T00:31:34;16.63;;;13.93;;
70545;SDS011;58098;51.680;5.134;2023-05-07T00:34:00;15.45;;;13.68;;
70545;SDS011;58098;51.680;5.134;2023-05-07T00:36:25;16.47;;;13.30;;
70545;SDS011;58098;51.680;5.134;2023-05-07T00:38:51;14.87;;;13.27;;
70545;SDS011;58098;51.680;5.134;2023-05-07T00:41:16;17.03;;;13.67;;
70545;SDS011;58098;51.680;5.134;2023-05-07T00:43:41;16.03;;;13.67;;
70545;SDS011;58098;51.680;5.134;2023-05-07T00:46:07;18.77;;;14.30;;
70545;SDS011;58098;51.680;5.134;2023-05-07T00:48:32;17.40;;;14.20;;
70545;SDS011;58098;51.680;5.134;2023-05-07T00:50:58;17.33;;;14.33;;
70545;SDS011;58098;51.680;5.134;2023-05-07T00:53:23;18.87;;;14.10;;
70545;SDS011;58098;51.680;5.134;2023-05-07T00:55:49;15.48;;;13.88;;
70545;SDS011;58098;51.680;5.134;2023-05-07T00:58:15;16.45;;;13.75;;
70545;SDS011;58098;51.680;5.134;2023-05-07T01:00:41;17.80;;;14.63;;
70545;SDS011;58098;51.680;5.134;2023-05-07T01:03:07;17.40;;;13.90;;
70545;SDS011;58098;51.680;5.134;2023-05-07T01:05:32;20.07;;;14.17;;
70545;SDS011;58098;51.680;5.134;2023-05-07T01:07:58;15.33;;;13.20;;
70545;SDS011;58098;51.680;5.134;2023-05-07T01:10:24;15.18;;;13.25;;
70545;SDS011;58098;51.680;5.134;2023-05-07T01:12:50;14.88;;;13.02;;
70545;SDS011;58098;51.680;5.134;2023-05-07T01:15:17;14.70;;;12.97;;
70545;SDS011;58098;51.680;5.134;2023-05-07T01:17:43;18.83;;;13.02;;
70545;SDS011;58098;51.680;5.134;2023-05-07T01:20:09;15.90;;;12.25;;
70545;SDS011;58098;51.680;5.134;2023-05-07T01:22:39;12.65;;;11.32;;
70545;SDS011;58098;51.680;5.134;2023-05-07T01:25:05;16.47;;;13.87;;
70545;SDS011;58098;51.680;5.134;2023-05-07T01:27:32;16.98;;;13.50;;
70545;SDS011;58098;51.680;5.134;2023-05-07T01:29:58;18.55;;;13.80;;
70545;SDS011;58098;51.680;5.134;2023-05-07T01:32:28;16.90;;;13.00;;
70545;SDS011;58098;51.680;5.134;2023-05-07T01:34:57;14.65;;;13.10;;
70545;SDS011;58098;51.680;5.134;2023-05-07T01:37:24;18.45;;;13.65;;
70545;SDS011;58098;51.680;5.134;2023-05-07T01:39:50;14.90;;;12.32;;
70545;SDS011;58098;51.680;5.134;2023-05-07T01:42:17;14.97;;;13.23;;
70545;SDS011;58098;51.680;5.134;2023-05-07T01:44:43;15.57;;;12.88;;
70545;SDS011;58098;51.680;5.134;2023-05-07T01:47:08;16.67;;;13.23;;
70545;SDS011;58098;51.680;5.134;2023-05-07T01:49:34;16.43;;;13.60;;
70545;SDS011;58098;51.680;5.134;2023-05-07T01:51:59;17.38;;;13.52;;
70545;SDS011;58098;51.680;5.134;2023-05-07T01:54:26;17.93;;;13.87;;
70545;SDS011;58098;51.680;5.134;2023-05-07T01:56:56;19.75;;;13.68;;
70545;SDS011;58098;51.680;5.134;2023-05-07T01:59:22;17.45;;;13.70;;
70545;SDS011;58098;51.680;5.134;2023-05-07T02:01:47;18.53;;;14.07;;
70545;SDS011;58098;51.680;5.134;2023-05-07T02:04:12;17.97;;;14.43;;
70545;SDS011;58098;51.680;5.134;2023-05-07T02:06:38;18.60;;;13.30;;
70545;SDS011;58098;51.680;5.134;2023-05-07T02:09:03;17.33;;;14.20;;
70545;SDS011;58098;51.680;5.134;2023-05-07T02:11:28;16.83;;;14.30;;
70545;SDS011;58098;51.680;5.134;2023-05-07T02:13:54;18.03;;;13.97;;
70545;SDS011;58098;51.680;5.134;2023-05-07T02:16:19;19.03;;;14.73;;
70545;SDS011;58098;51.680;5.134;2023-05-07T02:18:45;18.10;;;13.67;;
70545;SDS011;58098;51.680;5.134;2023-05-07T02:21:10;19.30;;;14.40;;
70545;SDS011;58098;51.680;5.134;2023-05-07T02:23:35;18.70;;;13.70;;
70545;SDS011;58098;51.680;5.134;2023-05-07T02:26:01;19.30;;;14.50;;
70545;SDS011;58098;51.680;5.134;2023-05-07T02:28:26;18.27;;;14.00;;
70545;SDS011;58098;51.680;5.134;2023-05-07T02:30:52;18.43;;;13.90;;
70545;SDS011;58098;51.680;5.134;2023-05-07T02:33:17;15.95;;;14.02;;
70545;SDS011;58098;51.680;5.134;2023-05-07T02:35:43;19.13;;;15.47;;
70545;SDS011;58098;51.680;5.134;2023-05-07T02:38:08;18.37;;;14.80;;
70545;SDS011;58098;51.680;5.134;2023-05-07T02:40:35;21.20;;;15.63;;
70545;SDS011;58098;51.680;5.134;2023-05-07T02:43:04;18.17;;;14.43;;
70545;SDS011;58098;51.680;5.134;2023-05-07T02:45:29;19.17;;;15.10;;
70545;SDS011;58098;51.680;5.134;2023-05-07T02:47:54;21.47;;;15.37;;
70545;SDS011;58098;51.680;5.134;2023-05-07T02:50:20;19.55;;;15.43;;
70545;SDS011;58098;51.680;5.134;2023-05-07T02:52:45;21.33;;;15.10;;
70545;SDS011;58098;51.680;5.134;2023-05-07T02:55:10;17.53;;;15.27;;
70545;SDS011;58098;51.680;5.134;2023-05-07T02:57:36;17.80;;;14.37;;
70545;SDS011;58098;51.680;5.134;2023-05-07T03:00:09;21.17;;;15.93;;
70545;SDS011;58098;51.680;5.134;2023-05-07T03:02:36;20.13;;;15.90;;
70545;SDS011;58098;51.680;5.134;2023-05-07T03:05:02;21.83;;;16.10;;
70545;SDS011;58098;51.680;5.134;2023-05-07T03:07:28;22.20;;;16.35;;
70545;SDS011;58098;51.680;5.134;2023-05-07T03:09:53;20.63;;;15.47;;
70545;SDS011;58098;51.680;5.134;2023-05-07T03:12:19;21.33;;;16.25;;
70545;SDS011;58098;51.680;5.134;2023-05-07T03:14:45;21.97;;;15.97;;
70545;SDS011;58098;51.680;5.134;2023-05-07T03:17:10;20.37;;;16.27;;
70545;SDS011;58098;51.680;5.134;2023-05-07T03:19:35;21.25;;;15.88;;
70545;SDS011;58098;51.680;5.134;2023-05-07T03:22:01;21.43;;;15.83;;
70545;SDS011;58098;51.680;5.134;2023-05-07T03:24:26;20.67;;;16.27;;
70545;SDS011;58098;51.680;5.134;2023-05-07T03:26:51;22.77;;;17.17;;
70545;SDS011;58098;51.680;5.134;2023-05-07T03:29:17;20.47;;;16.33;;
70545;SDS011;58098;51.680;5.134;2023-05-07T03:31:42;20.97;;;16.30;;
70545;SDS011;58098;51.680;5.134;2023-05-07T03:34:08;24.17;;;17.58;;
70545;SDS011;58098;51.680;5.134;2023-05-07T03:36:33;24.67;;;17.67;;
70545;SDS011;58098;51.680;5.134;2023-05-07T03:38:58;22.73;;;18.03;;
70545;SDS011;58098;51.680;5.134;2023-05-07T03:41:23;25.43;;;18.90;;
70545;SDS011;58098;51.680;5.134;2023-05-07T03:43:50;28.73;;;18.83;;
70545;SDS011;58098;51.680;5.134;2023-05-07T03:46:15;23.90;;;17.87;;
70545;SDS011;58098;51.680;5.134;2023-05-07T03:48:41;27.27;;;17.87;;
70545;SDS011;58098;51.680;5.134;2023-05-07T03:51:06;25.70;;;18.60;;
70545;SDS011;58098;51.680;5.134;2023-05-07T03:53:31;24.80;;;19.43;;
70545;SDS011;58098;51.680;5.134;2023-05-07T03:55:57;26.63;;;19.67;;
70545;SDS011;58098;51.680;5.134;2023-05-07T03:58:22;26.07;;;19.30;;
70545;SDS011;58098;51.680;5.134;2023-05-07T04:00:47;26.43;;;20.10;;
70545;SDS011;58098;51.680;5.134;2023-05-07T04:03:13;23.70;;;19.57;;
70545;SDS011;58098;51.680;5.134;2023-05-07T04:05:39;30.57;;;20.70;;
70545;SDS011;58098;51.680;5.134;2023-05-07T04:08:04;25.20;;;18.83;;
70545;SDS011;58098;51.680;5.134;2023-05-07T04:10:30;26.60;;;21.53;;
70545;SDS011;58098;51.680;5.134;2023-05-07T04:12:55;26.27;;;19.53;;
70545;SDS011;58098;51.680;5.134;2023-05-07T04:15:22;27.95;;;21.23;;
70545;SDS011;58098;51.680;5.134;2023-05-07T04:17:48;28.33;;;20.58;;
70545;SDS011;58098;51.680;5.134;2023-05-07T04:20:16;29.73;;;21.10;;
70545;SDS011;58098;51.680;5.134;2023-05-07T04:22:42;31.00;;;21.48;;
70545;SDS011;58098;51.680;5.134;2023-05-07T04:25:08;30.50;;;21.97;;
70545;SDS011;58098;51.680;5.134;2023-05-07T04:27:34;27.27;;;21.48;;
70545;SDS011;58098;51.680;5.134;2023-05-07T04:30:01;33.33;;;22.15;;
70545;SDS011;58098;51.680;5.134;2023-05-07T04:32:27;33.15;;;22.52;;
70545;SDS011;58098;51.680;5.134;2023-05-07T04:34:54;29.83;;;22.23;;
70545;SDS011;58098;51.680;5.134;2023-05-07T04:37:20;30.40;;;22.17;;
70545;SDS011;58098;51.680;5.134;2023-05-07T04:39:45;27.95;;;21.90;;
70545;SDS011;58098;51.680;5.134;2023-05-07T04:42:14;27.63;;;21.57;;
70545;SDS011;58098;51.680;5.134;2023-05-07T04:44:40;27.98;;;21.23;;
70545;SDS011;58098;51.680;5.134;2023-05-07T04:47:05;25.37;;;20.40;;
70545;SDS011;58098;51.680;5.134;2023-05-07T04:49:31;28.60;;;22.00;;
70545;SDS011;58098;51.680;5.134;2023-05-07T04:51:56;28.60;;;21.40;;
70545;SDS011;58098;51.680;5.134;2023-05-07T04:54:22;30.70;;;22.13;;
70545;SDS011;58098;51.680;5.134;2023-05-07T04:56:47;28.88;;;21.67;;
70545;SDS011;58098;51.680;5.134;2023-05-07T04:59:12;33.77;;;22.20;;
70545;SDS011;58098;51.680;5.134;2023-05-07T05:01:38;30.60;;;22.47;;
70545;SDS011;58098;51.680;5.134;2023-05-07T05:04:03;33.20;;;22.73;;
70545;SDS011;58098;51.680;5.134;2023-05-07T05:06:28;35.40;;;23.43;;
70545;SDS011;58098;51.680;5.134;2023-05-07T05:08:53;29.57;;;23.57;;
70545;SDS011;58098;51.680;5.134;2023-05-07T05:11:19;33.43;;;24.43;;
70545;SDS011;58098;51.680;5.134;2023-05-07T05:13:44;32.40;;;24.15;;
70545;SDS011;58098;51.680;5.134;2023-05-07T05:16:09;31.20;;;23.73;;
70545;SDS011;58098;51.680;5.134;2023-05-07T05:18:35;34.50;;;24.63;;
70545;SDS011;58098;51.680;5.134;2023-05-07T05:21:00;34.93;;;23.83;;
70545;SDS011;58098;51.680;5.134;2023-05-07T05:23:26;33.33;;;24.87;;
70545;SDS011;58098;51.680;5.134;2023-05-07T05:25:55;31.83;;;25.42;;
70545;SDS011;58098;51.680;5.134;2023-05-07T05:28:22;38.45;;;25.20;;
70545;SDS011;58098;51.680;5.134;2023-05-07T05:30:48;32.20;;;24.60;;
70545;SDS011;58098;51.680;5.134;2023-05-07T05:33:13;30.57;;;22.90;;
70545;SDS011;58098;51.680;5.134;2023-05-07T05:35:38;34.57;;;24.97;;
70545;SDS011;58098;51.680;5.134;2023-05-07T05:38:03;35.63;;;25.23;;
70545;SDS011;58098;51.680;5.134;2023-05-07T05:40:29;32.20;;;24.63;;
70545;SDS011;58098;51.680;5.134;2023-05-07T05:42:54;30.70;;;21.97;;
70545;SDS011;58098;51.680;5.134;2023-05-07T05:45:20;29.63;;;23.00;;
70545;SDS011;58098;51.680;5.134;2023-05-07T05:47:45;30.67;;;24.20;;
70545;SDS011;58098;51.680;5.134;2023-05-07T05:50:11;31.80;;;23.80;;
70545;SDS011;58098;51.680;5.134;2023-05-07T05:52:36;34.13;;;24.55;;
70545;SDS011;58098;51.680;5.134;2023-05-07T05:55:01;33.57;;;23.73;;
70545;SDS011;58098;51.680;5.134;2023-05-07T05:57:27;30.63;;;22.97;;
70545;SDS011;58098;51.680;5.134;2023-05-07T05:59:52;34.10;;;24.27;;
70545;SDS011;58098;51.680;5.134;2023-05-07T06:02:17;32.07;;;24.20;;
70545;SDS011;58098;51.680;5.134;2023-05-07T06:04:42;30.07;;;22.20;;
70545;SDS011;58098;51.680;5.134;2023-05-07T06:07:08;30.60;;;24.23;;
70545;SDS011;58098;51.680;5.134;2023-05-07T06:09:33;34.53;;;23.43;;
70545;SDS011;58098;51.680;5.134;2023-05-07T06:11:58;30.23;;;22.75;;
70545;SDS011;58098;51.680;5.134;2023-05-07T06:14:24;31.23;;;23.97;;
70545;SDS011;58098;51.680;5.134;2023-05-07T06:16:49;30.40;;;24.47;;
70545;SDS011;58098;51.680;5.134;2023-05-07T06:19:14;35.13;;;24.80;;
70545;SDS011;58098;51.680;5.134;2023-05-07T06:21:43;31.88;;;24.80;;
70545;SDS011;58098;51.680;5.134;2023-05-07T06:24:08;35.53;;;24.93;;
70545;SDS011;58098;51.680;5.134;2023-05-07T06:26:33;33.67;;;25.17;;
70545;SDS011;58098;51.680;5.134;2023-05-07T06:28:59;31.57;;;24.80;;
70545;SDS011;58098;51.680;5.134;2023-05-07T06:31:28;33.92;;;26.02;;
70545;SDS011;58098;51.680;5.134;2023-05-07T06:33:55;32.10;;;25.33;;
70545;SDS011;58098;51.680;5.134;2023-05-07T06:36:21;37.00;;;26.58;;
70545;SDS011;58098;51.680;5.134;2023-05-07T06:38:46;36.63;;;25.77;;
70545;SDS011;58098;51.680;5.134;2023-05-07T06:41:11;32.30;;;25.07;;
70545;SDS011;58098;51.680;5.134;2023-05-07T06:43:36;33.53;;;26.37;;
70545;SDS011;58098;51.680;5.134;2023-05-07T06:46:02;35.77;;;25.90;;
70545;SDS011;58098;51.680;5.134;2023-05-07T06:48:27;31.60;;;24.77;;
70545;SDS011;58098;51.680;5.134;2023-05-07T06:50:52;32.83;;;25.57;;
70545;SDS011;58098;51.680;5.134;2023-05-07T06:53:20;34.38;;;25.13;;
70545;SDS011;58098;51.680;5.134;2023-05-07T06:55:45;35.77;;;24.87;;
70545;SDS011;58098;51.680;5.134;2023-05-07T06:58:10;33.43;;;25.57;;
70545;SDS011;58098;51.680;5.134;2023-05-07T07:00:36;28.17;;;24.10;;
70545;SDS011;58098;51.680;5.134;2023-05-07T07:03:01;31.00;;;23.45;;
70545;SDS011;58098;51.680;5.134;2023-05-07T07:05:26;34.47;;;25.13;;
70545;SDS011;58098;51.680;5.134;2023-05-07T07:07:52;34.87;;;25.33;;
70545;SDS011;58098;51.680;5.134;2023-05-07T07:10:21;32.73;;;24.37;;
70545;SDS011;58098;51.680;5.134;2023-05-07T07:12:47;32.00;;;25.02;;
70545;SDS011;58098;51.680;5.134;2023-05-07T07:15:13;31.40;;;25.33;;
70545;SDS011;58098;51.680;5.134;2023-05-07T07:17:39;32.43;;;25.10;;
70545;SDS011;58098;51.680;5.134;2023-05-07T07:20:04;32.72;;;24.60;;
70545;SDS011;58098;51.680;5.134;2023-05-07T07:22:30;32.77;;;25.53;;
70545;SDS011;58098;51.680;5.134;2023-05-07T07:24:55;31.33;;;25.17;;
70545;SDS011;58098;51.680;5.134;2023-05-07T07:27:21;34.53;;;25.83;;
70545;SDS011;58098;51.680;5.134;2023-05-07T07:29:46;35.50;;;24.47;;
70545;SDS011;58098;51.680;5.134;2023-05-07T07:32:11;30.63;;;24.93;;
70545;SDS011;58098;51.680;5.134;2023-05-07T07:34:37;32.27;;;25.33;;
70545;SDS011;58098;51.680;5.134;2023-05-07T07:37:02;34.50;;;26.73;;
70545;SDS011;58098;51.680;5.134;2023-05-07T07:39:30;28.15;;;22.48;;
70545;SDS011;58098;51.680;5.134;2023-05-07T07:41:56;27.45;;;22.42;;
70545;SDS011;58098;51.680;5.134;2023-05-07T07:44:21;28.13;;;22.77;;
70545;SDS011;58098;51.680;5.134;2023-05-07T07:46:46;28.67;;;23.03;;
70545;SDS011;58098;51.680;5.134;2023-05-07T07:49:12;28.63;;;22.93;;
70545;SDS011;58098;51.680;5.134;2023-05-07T07:51:37;28.73;;;22.27;;
70545;SDS011;58098;51.680;5.134;2023-05-07T07:54:03;27.30;;;22.97;;
70545;SDS011;58098;51.680;5.134;2023-05-07T07:56:28;30.23;;;22.70;;
70545;SDS011;58098;51.680;5.134;2023-05-07T07:58:54;26.50;;;21.80;;
70545;SDS011;58098;51.680;5.134;2023-05-07T08:01:27;27.75;;;22.10;;
70545;SDS011;58098;51.680;5.134;2023-05-07T08:03:53;26.42;;;21.83;;
70545;SDS011;58098;51.680;5.134;2023-05-07T08:06:18;26.90;;;21.90;;
70545;SDS011;58098;51.680;5.134;2023-05-07T08:08:43;29.67;;;22.77;;
70545;SDS011;58098;51.680;5.134;2023-05-07T08:11:09;28.87;;;21.17;;
70545;SDS011;58098;51.680;5.134;2023-05-07T08:13:34;25.07;;;20.77;;
70545;SDS011;58098;51.680;5.134;2023-05-07T08:16:00;25.33;;;21.30;;
70545;SDS011;58098;51.680;5.134;2023-05-07T08:18:25;26.63;;;20.88;;
70545;SDS011;58098;51.680;5.134;2023-05-07T08:20:53;26.50;;;19.60;;
70545;SDS011;58098;51.680;5.134;2023-05-07T08:23:18;27.15;;;19.75;;
70545;SDS011;58098;51.680;5.134;2023-05-07T08:25:44;25.77;;;20.17;;
70545;SDS011;58098;51.680;5.134;2023-05-07T08:28:10;26.80;;;20.53;;
70545;SDS011;58098;51.680;5.134;2023-05-07T08:30:36;24.25;;;19.20;;
70545;SDS011;58098;51.680;5.134;2023-05-07T08:33:02;23.13;;;19.60;;
70545;SDS011;58098;51.680;5.134;2023-05-07T08:35:27;25.30;;;18.97;;
70545;SDS011;58098;51.680;5.134;2023-05-07T08:37:53;22.77;;;19.67;;
70545;SDS011;58098;51.680;5.134;2023-05-07T08:40:18;21.50;;;18.23;;
70545;SDS011;58098;51.680;5.134;2023-05-07T08:42:43;22.43;;;17.83;;
70545;SDS011;58098;51.680;5.134;2023-05-07T08:45:10;22.20;;;18.83;;
70545;SDS011;58098;51.680;5.134;2023-05-07T08:47:50;22.02;;;18.05;;
70545;SDS011;58098;51.680;5.134;2023-05-07T08:50:20;23.20;;;18.40;;
70545;SDS011;58098;51.680;5.134;2023-05-07T08:52:45;21.60;;;18.87;;
70545;SDS011;58098;51.680;5.134;2023-05-07T08:55:11;21.98;;;18.23;;
70545;SDS011;58098;51.680;5.134;2023-05-07T08:57:38;25.13;;;18.08;;
70545;SDS011;58098;51.680;5.134;2023-05-07T09:00:04;22.57;;;18.17;;
70545;SDS011;58098;51.680;5.134;2023-05-07T09:02:33;23.42;;;18.60;;
70545;SDS011;58098;51.680;5.134;2023-05-07T09:05:00;24.70;;;19.02;;
70545;SDS011;58098;51.680;5.134;2023-05-07T09:07:25;22.27;;;17.13;;
70545;SDS011;58098;51.680;5.134;2023-05-07T09:09:51;24.70;;;19.07;;
70545;SDS011;58098;51.680;5.134;2023-05-07T09:12:17;21.88;;;17.42;;
70545;SDS011;58098;51.680;5.134;2023-05-07T09:14:43;26.03;;;17.67;;
70545;SDS011;58098;51.680;5.134;2023-05-07T09:17:09;20.92;;;17.67;;
70545;SDS011;58098;51.680;5.134;2023-05-07T09:19:34;21.77;;;17.93;;
70545;SDS011;58098;51.680;5.134;2023-05-07T09:22:05;22.23;;;18.83;;
70545;SDS011;58098;51.680;5.134;2023-05-07T09:24:32;20.95;;;17.30;;
70545;SDS011;58098;51.680;5.134;2023-05-07T09:27:02;21.20;;;17.88;;
70545;SDS011;58098;51.680;5.134;2023-05-07T09:29:28;21.70;;;18.00;;
70545;SDS011;58098;51.680;5.134;2023-05-07T09:31:55;23.45;;;17.98;;
70545;SDS011;58098;51.680;5.134;2023-05-07T09:34:20;20.80;;;17.57;;
70545;SDS011;58098;51.680;5.134;2023-05-07T09:36:46;24.65;;;18.25;;
70545;SDS011;58098;51.680;5.134;2023-05-07T09:39:12;20.67;;;16.93;;
70545;SDS011;58098;51.680;5.134;2023-05-07T09:41:44;22.48;;;17.88;;
70545;SDS011;58098;51.680;5.134;2023-05-07T09:44:11;22.70;;;17.23;;
70545;SDS011;58098;51.680;5.134;2023-05-07T09:46:36;20.07;;;15.90;;
70545;SDS011;58098;51.680;5.134;2023-05-07T09:49:03;18.55;;;15.63;;
70545;SDS011;58098;51.680;5.134;2023-05-07T09:51:35;17.33;;;14.75;;
70545;SDS011;58098;51.680;5.134;2023-05-07T09:54:08;16.63;;;14.17;;
70545;SDS011;58098;51.680;5.134;2023-05-07T09:56:35;17.92;;;14.88;;
70545;SDS011;58098;51.680;5.134;2023-05-07T09:59:02;17.25;;;13.80;;
70545;SDS011;58098;51.680;5.134;2023-05-07T10:01:29;17.43;;;13.03;;
70545;SDS011;58098;51.680;5.134;2023-05-07T10:03:56;15.57;;;13.05;;
70545;SDS011;58098;51.680;5.134;2023-05-07T10:06:23;16.17;;;13.00;;
70545;SDS011;58098;51.680;5.134;2023-05-07T10:08:50;14.82;;;11.98;;
70545;SDS011;58098;51.680;5.134;2023-05-07T10:11:17;15.27;;;13.20;;
70545;SDS011;58098;51.680;5.134;2023-05-07T10:13:42;16.33;;;13.57;;
70545;SDS011;58098;51.680;5.134;2023-05-07T10:16:08;15.77;;;13.18;;
70545;SDS011;58098;51.680;5.134;2023-05-07T10:18:34;16.33;;;13.50;;
70545;SDS011;58098;51.680;5.134;2023-05-07T10:21:15;16.00;;;13.97;;
70545;SDS011;58098;51.680;5.134;2023-05-07T10:23:45;15.60;;;13.85;;
70545;SDS011;58098;51.680;5.134;2023-05-07T10:26:19;16.85;;;14.27;;
70545;SDS011;58098;51.680;5.134;2023-05-07T10:28:48;17.80;;;13.93;;
70545;SDS011;58098;51.680;5.134;2023-05-07T10:34:13;17.33;;;13.77;;
70545;SDS011;58098;51.680;5.134;2023-05-07T10:36:44;16.83;;;13.10;;
70545;SDS011;58098;51.680;5.134;2023-05-07T10:39:10;16.50;;;12.85;;
70545;SDS011;58098;51.680;5.134;2023-05-07T10:41:36;18.77;;;13.73;;
70545;SDS011;58098;51.680;5.134;2023-05-07T10:44:02;15.83;;;12.23;;
70545;SDS011;58098;51.680;5.134;2023-05-07T10:46:27;15.40;;;12.52;;
70545;SDS011;58098;51.680;5.134;2023-05-07T10:51:33;16.30;;;11.82;;
70545;SDS011;58098;51.680;5.134;2023-05-07T10:56:37;19.58;;;12.95;;
70545;SDS011;58098;51.680;5.134;2023-05-07T11:04:24;14.32;;;11.90;;
70545;SDS011;58098;51.680;5.134;2023-05-07T11:12:32;15.05;;;11.93;;
70545;SDS011;58098;51.680;5.134;2023-05-07T11:17:29;14.75;;;11.13;;
70545;SDS011;58098;51.680;5.134;2023-05-07T11:19:57;13.75;;;10.48;;
70545;SDS011;58098;51.680;5.134;2023-05-07T11:22:35;12.48;;;9.75;;
70545;SDS011;58098;51.680;5.134;2023-05-07T11:25:05;11.98;;;10.57;;
70545;SDS011;58098;51.680;5.134;2023-05-07T11:27:31;13.40;;;9.90;;
70545;SDS011;58098;51.680;5.134;2023-05-07T11:29:57;12.35;;;9.32;;
70545;SDS011;58098;51.680;5.134;2023-05-07T11:32:26;14.88;;;10.35;;
70545;SDS011;58098;51.680;5.134;2023-05-07T11:34:56;12.07;;;9.57;;
70545;SDS011;58098;51.680;5.134;2023-05-07T11:37:24;10.43;;;9.30;;
70545;SDS011;58098;51.680;5.134;2023-05-07T11:39:51;12.85;;;9.98;;
70545;SDS011;58098;51.680;5.134;2023-05-07T11:42:29;12.25;;;9.60;;
70545;SDS011;58098;51.680;5.134;2023-05-07T11:44:56;12.55;;;9.48;;
70545;SDS011;58098;51.680;5.134;2023-05-07T11:47:21;13.47;;;9.23;;
70545;SDS011;58098;51.680;5.134;2023-05-07T11:49:47;12.70;;;9.67;;
70545;SDS011;58098;51.680;5.134;2023-05-07T11:52:18;13.40;;;10.30;;
70545;SDS011;58098;51.680;5.134;2023-05-07T11:54:51;11.85;;;9.27;;
70545;SDS011;58098;51.680;5.134;2023-05-07T11:57:18;11.55;;;8.35;;
70545;SDS011;58098;51.680;5.134;2023-05-07T11:59:44;10.45;;;7.68;;
70545;SDS011;58098;51.680;5.134;2023-05-07T12:02:11;12.85;;;8.85;;
70545;SDS011;58098;51.680;5.134;2023-05-07T12:04:39;11.83;;;8.90;;
70545;SDS011;58098;51.680;5.134;2023-05-07T12:07:04;12.50;;;8.80;;
70545;SDS011;58098;51.680;5.134;2023-05-07T12:09:32;9.75;;;7.82;;
70545;SDS011;58098;51.680;5.134;2023-05-07T12:12:02;11.33;;;8.13;;
70545;SDS011;58098;51.680;5.134;2023-05-07T12:14:28;9.50;;;7.63;;
70545;SDS011;58098;51.680;5.134;2023-05-07T12:16:54;12.32;;;8.35;;
70545;SDS011;58098;51.680;5.134;2023-05-07T12:19:19;9.80;;;7.47;;
70545;SDS011;58098;51.680;5.134;2023-05-07T12:21:45;9.52;;;7.72;;
70545;SDS011;58098;51.680;5.134;2023-05-07T12:24:11;11.93;;;7.70;;
70545;SDS011;58098;51.680;5.134;2023-05-07T12:26:39;9.87;;;6.60;;
70545;SDS011;58098;51.680;5.134;2023-05-07T12:29:05;8.98;;;6.00;;
70545;SDS011;58098;51.680;5.134;2023-05-07T12:31:31;12.17;;;6.87;;
70545;SDS011;58098;51.680;5.134;2023-05-07T12:33:56;10.60;;;7.13;;
70545;SDS011;58098;51.680;5.134;2023-05-07T12:36:21;10.67;;;7.50;;
70545;SDS011;58098;51.680;5.134;2023-05-07T12:38:48;12.77;;;7.30;;
70545;SDS011;58098;51.680;5.134;2023-05-07T12:41:15;9.50;;;6.07;;
70545;SDS011;58098;51.680;5.134;2023-05-07T12:43:42;10.27;;;5.85;;
70545;SDS011;58098;51.680;5.134;2023-05-07T12:46:09;10.43;;;6.70;;
70545;SDS011;58098;51.680;5.134;2023-05-07T12:48:38;8.63;;;4.87;;
70545;SDS011;58098;51.680;5.134;2023-05-07T12:51:08;5.47;;;4.35;;
70545;SDS011;58098;51.680;5.134;2023-05-07T12:53:39;9.93;;;5.65;;
70545;SDS011;58098;51.680;5.134;2023-05-07T12:56:05;8.48;;;5.60;;
70545;SDS011;58098;51.680;5.134;2023-05-07T12:58:33;9.40;;;5.53;;
70545;SDS011;58098;51.680;5.134;2023-05-07T13:01:00;6.85;;;5.53;;
70545;SDS011;58098;51.680;5.134;2023-05-07T13:03:36;8.35;;;3.85;;
70545;SDS011;58098;51.680;5.134;2023-05-07T13:06:06;8.13;;;4.38;;
70545;SDS011;58098;51.680;5.134;2023-05-07T13:08:38;5.60;;;3.33;;
70545;SDS011;58098;51.680;5.134;2023-05-07T13:11:06;6.20;;;2.97;;
70545;SDS011;58098;51.680;5.134;2023-05-07T13:13:33;6.30;;;3.38;;
70545;SDS011;58098;51.680;5.134;2023-05-07T13:16:03;9.98;;;3.83;;
70545;SDS011;58098;51.680;5.134;2023-05-07T13:18:29;9.20;;;3.72;;
70545;SDS011;58098;51.680;5.134;2023-05-07T13:20:55;8.67;;;4.97;;
70545;SDS011;58098;51.680;5.134;2023-05-07T13:23:21;9.13;;;5.82;;
70545;SDS011;58098;51.680;5.134;2023-05-07T13:25:47;7.80;;;5.13;;
70545;SDS011;58098;51.680;5.134;2023-05-07T13:28:13;8.02;;;5.30;;
70545;SDS011;58098;51.680;5.134;2023-05-07T13:30:38;9.10;;;5.43;;
70545;SDS011;58098;51.680;5.134;2023-05-07T13:33:05;9.80;;;6.22;;
70545;SDS011;58098;51.680;5.134;2023-05-07T13:35:31;9.90;;;5.73;;
70545;SDS011;58098;51.680;5.134;2023-05-07T13:37:56;11.03;;;5.70;;
70545;SDS011;58098;51.680;5.134;2023-05-07T13:40:22;7.88;;;5.63;;
70545;SDS011;58098;51.680;5.134;2023-05-07T13:42:48;10.07;;;5.73;;
70545;SDS011;58098;51.680;5.134;2023-05-07T13:45:14;9.85;;;5.78;;
70545;SDS011;58098;51.680;5.134;2023-05-07T13:47:40;7.68;;;6.03;;
70545;SDS011;58098;51.680;5.134;2023-05-07T13:50:07;10.10;;;6.35;;
70545;SDS011;58098;51.680;5.134;2023-05-07T13:52:40;11.57;;;5.57;;
70545;SDS011;58098;51.680;5.134;2023-05-07T13:55:08;9.35;;;5.70;;
70545;SDS011;58098;51.680;5.134;2023-05-07T13:57:34;9.60;;;6.18;;
70545;SDS011;58098;51.680;5.134;2023-05-07T13:59:59;9.87;;;6.10;;
70545;SDS011;58098;51.680;5.134;2023-05-07T14:02:25;8.00;;;6.20;;
70545;SDS011;58098;51.680;5.134;2023-05-07T14:04:50;9.53;;;6.43;;
70545;SDS011;58098;51.680;5.134;2023-05-07T14:07:15;9.17;;;6.27;;
70545;SDS011;58098;51.680;5.134;2023-05-07T14:09:40;10.20;;;5.83;;
70545;SDS011;58098;51.680;5.134;2023-05-07T14:12:06;9.90;;;6.63;;
70545;SDS011;58098;51.680;5.134;2023-05-07T14:14:32;12.82;;;7.20;;
70545;SDS011;58098;51.680;5.134;2023-05-07T14:16:57;13.27;;;9.33;;
70545;SDS011;58098;51.680;5.134;2023-05-07T14:19:22;12.63;;;8.10;;
70545;SDS011;58098;51.680;5.134;2023-05-07T14:21:48;12.63;;;7.63;;
70545;SDS011;58098;51.680;5.134;2023-05-07T14:24:13;12.80;;;7.78;;
70545;SDS011;58098;51.680;5.134;2023-05-07T14:26:39;11.83;;;7.87;;
70545;SDS011;58098;51.680;5.134;2023-05-07T14:29:04;14.40;;;8.33;;
70545;SDS011;58098;51.680;5.134;2023-05-07T14:31:30;12.93;;;8.77;;
70545;SDS011;58098;51.680;5.134;2023-05-07T14:33:55;14.43;;;8.30;;
70545;SDS011;58098;51.680;5.134;2023-05-07T14:36:22;10.48;;;8.27;;
70545;SDS011;58098;51.680;5.134;2023-05-07T14:38:51;13.05;;;8.05;;
70545;SDS011;58098;51.680;5.134;2023-05-07T14:41:18;15.20;;;7.72;;